createdAt,value
2022-08-17T00:00:52.190Z,97977.06
2022-08-17T00:06:21.027Z,97978.41
2022-08-17T00:12:41.280Z,97975.44
2022-08-17T00:17:26.167Z,97967.38
2022-08-17T00:22:48.158Z,97971.06
2022-08-17T00:28:10.049Z,97961.41
2022-08-17T00:33:32.585Z,97960.47
2022-08-17T00:38:54.338Z,97954.84
2022-08-17T00:44:16.435Z,97956.50
2022-08-17T00:49:38.192Z,97953.38
2022-08-17T00:55:01.175Z,97957.41
2022-08-17T01:00:37.760Z,97953.56
2022-08-17T01:06:02.502Z,97951.94
2022-08-17T01:11:25.104Z,97947.06
2022-08-17T01:16:49.559Z,97942.94
2022-08-17T01:22:11.213Z,97940.50
2022-08-17T01:27:33.038Z,97937.19
2022-08-17T01:32:55.194Z,97940.63
2022-08-17T01:38:18.332Z,97951.47
2022-08-17T01:43:56.780Z,97950.22
2022-08-17T01:49:19.563Z,97945.16
2022-08-17T01:54:43.938Z,97948.44
2022-08-17T02:00:10.289Z,97950.78
2022-08-17T02:05:33.028Z,97952.13
2022-08-17T02:10:55.521Z,97954.28
2022-08-17T02:16:18.402Z,97958.06
2022-08-17T02:21:42.470Z,97959.59
2022-08-17T02:27:05.176Z,97961.09
2022-08-17T02:32:28.417Z,97955.47
2022-08-17T02:37:51.871Z,97954.13
2022-08-17T02:43:17.662Z,97950.50
2022-08-17T02:48:39.970Z,97956.78
2022-08-17T02:54:38.882Z,97955.13
2022-08-17T02:59:48.834Z,97954.28
2022-08-17T03:05:13.772Z,97961.06
2022-08-17T03:10:35.690Z,97955.28
2022-08-17T03:15:57.651Z,97961.47
2022-08-17T03:21:19.450Z,97953.81
2022-08-17T03:26:41.190Z,97963.78
2022-08-17T03:32:12.586Z,97967.09
2022-08-17T03:37:34.594Z,97983.84
2022-08-17T03:42:57.533Z,97982.38
2022-08-17T03:48:38.459Z,97987.19
2022-08-17T03:54:19.154Z,97982.84
2022-08-17T03:59:41.325Z,97989.97
2022-08-17T04:05:03.402Z,97992.06
2022-08-17T04:10:26.597Z,98006.66
2022-08-17T04:15:49.165Z,97995.00
2022-08-17T04:21:11.095Z,97997.50
2022-08-17T04:26:52.508Z,98016.88
2022-08-17T04:32:14.807Z,98019.91
2022-08-17T04:37:36.584Z,98031.16
2022-08-17T04:43:07.281Z,98019.88
2022-08-17T04:48:36.409Z,98032.31
2022-08-17T04:54:05.474Z,98040.47
2022-08-17T04:59:27.215Z,98054.03
2022-08-17T05:04:49.880Z,98052.66
2022-08-17T05:10:11.656Z,98049.03
2022-08-17T05:15:36.032Z,98040.47
2022-08-17T05:20:58.033Z,98041.13
2022-08-17T05:26:25.963Z,98055.09
2022-08-17T05:31:48.499Z,98040.31
2022-08-17T05:37:10.203Z,98059.06
2022-08-17T05:42:31.926Z,98052.75
2022-08-17T05:47:53.692Z,98040.81
2022-08-17T05:53:30.648Z,98049.94
2022-08-17T05:59:14.572Z,98053.28
2022-08-17T06:04:42.205Z,98056.94
2022-08-17T06:10:17.182Z,98074.38
2022-08-17T06:15:47.691Z,98082.34
2022-08-17T06:21:13.516Z,98084.81
2022-08-17T06:26:42.959Z,98100.75
2022-08-17T06:32:09.333Z,98084.97
2022-08-17T06:37:51.189Z,98084.63
2022-08-17T06:43:34.954Z,98107.34
2022-08-17T06:49:26.119Z,98115.53
2022-08-17T06:55:09.330Z,98102.72
2022-08-17T07:00:44.430Z,98094.38
2022-08-17T07:06:13.234Z,98078.69
2022-08-17T07:11:49.206Z,98072.09
2022-08-17T07:17:14.050Z,98078.69
2022-08-17T07:23:08.887Z,98060.31
2022-08-17T07:28:33.582Z,98066.88
2022-08-17T07:34:02.682Z,98065.38
2022-08-17T07:39:26.925Z,98068.06
2022-08-17T07:44:53.965Z,98071.25
2022-08-17T07:50:29.349Z,98078.53
2022-08-17T07:55:52.875Z,98090.34
2022-08-17T08:01:15.478Z,98093.34
2022-08-17T08:06:49.543Z,98097.50
2022-08-17T08:12:35.448Z,98103.13
2022-08-17T08:18:03.022Z,98101.13
2022-08-17T08:23:37.052Z,98110.25
2022-08-17T08:29:01.836Z,98119.34
2022-08-17T08:34:58.883Z,98114.66
2022-08-17T08:40:35.319Z,98112.47
2022-08-17T08:46:41.083Z,98132.63
2022-08-17T08:52:08.643Z,98129.78
2022-08-17T08:57:39.893Z,98132.44
2022-08-17T09:03:51.797Z,98135.13
2022-08-17T09:09:18.255Z,98137.25
2022-08-17T09:15:08.290Z,98123.38
2022-08-17T09:20:46.626Z,98137.53
2022-08-17T09:26:37.630Z,98129.53
2022-08-17T09:32:03.661Z,98157.13
2022-08-17T09:37:31.060Z,98155.44
2022-08-17T09:43:00.738Z,98165.53
2022-08-17T09:48:50.297Z,98164.94
2022-08-17T09:54:40.292Z,98147.56
2022-08-17T10:00:16.185Z,98144.75
2022-08-17T10:05:47.108Z,98166.66
2022-08-17T10:11:33.598Z,98174.00
2022-08-17T10:17:05.559Z,98179.94
2022-08-17T10:22:59.598Z,98162.06
2022-08-17T10:28:29.865Z,98187.44
2022-08-17T10:34:19.106Z,98184.59
2022-08-17T10:40:05.274Z,98204.25
2022-08-17T10:46:30.357Z,98195.63
2022-08-17T10:51:53.390Z,98212.22
2022-08-17T10:57:27.307Z,98202.22
2022-08-17T11:02:52.479Z,98217.56
2022-08-17T11:08:45.043Z,98236.13
2022-08-17T11:14:18.896Z,98243.03
2022-08-17T11:19:48.458Z,98246.09
2022-08-17T11:25:18.663Z,98238.47
2022-08-17T11:30:46.972Z,98245.53
2022-08-17T11:36:36.217Z,98258.38
2022-08-17T11:42:26.438Z,98265.41
2022-08-17T11:48:29.102Z,98251.78
2022-08-17T11:54:03.547Z,98277.78
2022-08-17T11:59:33.879Z,98258.13
2022-08-17T12:05:21.879Z,98232.75
2022-08-17T12:10:57.903Z,98240.22
2022-08-17T12:16:21.048Z,98219.22
2022-08-17T12:21:46.218Z,98203.97
2022-08-17T12:27:11.302Z,98203.09
2022-08-17T12:32:36.126Z,98192.38
2022-08-17T12:37:57.950Z,98181.47
2022-08-17T12:43:22.594Z,98183.69
2022-08-17T12:48:59.293Z,98176.63
2022-08-17T12:54:26.835Z,98161.09
2022-08-17T12:59:59.038Z,98131.00
2022-08-17T13:05:31.561Z,98118.66
2022-08-17T13:10:56.865Z,98092.91
2022-08-17T13:16:22.268Z,98117.00
2022-08-17T13:21:47.959Z,98115.75
2022-08-17T13:27:13.232Z,98118.88
2022-08-17T13:32:37.406Z,98104.19
2022-08-17T13:38:11.734Z,98102.31
2022-08-17T13:43:39.473Z,98087.03
2022-08-17T13:49:11.907Z,98089.50
2022-08-17T13:54:36.833Z,98086.66
2022-08-17T14:00:19.331Z,98078.97
2022-08-17T14:05:41.202Z,98066.09
2022-08-17T14:11:03.107Z,98049.66
2022-08-17T14:16:24.885Z,98035.66
2022-08-17T14:21:46.701Z,98022.53
2022-08-17T14:27:11.906Z,98013.31
2022-08-17T14:32:35.763Z,98031.44
2022-08-17T14:37:57.901Z,98027.09
2022-08-17T14:43:20.831Z,98025.25
2022-08-17T14:48:42.561Z,98015.34
2022-08-17T14:54:05.162Z,98022.59
2022-08-17T14:59:26.918Z,98034.53
2022-08-17T15:04:48.781Z,98030.25
2022-08-17T15:10:12.548Z,98031.25
2022-08-17T15:15:34.529Z,98027.94
2022-08-17T15:20:56.682Z,98027.94
2022-08-17T15:26:20.720Z,98011.06
2022-08-17T15:31:45.978Z,98012.31
2022-08-17T15:37:07.708Z,98002.22
2022-08-17T15:42:29.605Z,98008.41
2022-08-17T15:47:52.472Z,98010.69
2022-08-17T15:53:14.493Z,98013.16
2022-08-17T15:58:38.069Z,98012.94
2022-08-17T16:04:06.679Z,98005.53
2022-08-17T16:09:29.293Z,98001.41
2022-08-17T16:14:53.230Z,97994.78
2022-08-17T16:20:20.541Z,97990.66
2022-08-17T16:25:52.664Z,97985.13
2022-08-17T16:31:15.815Z,97981.38
2022-08-17T16:36:37.550Z,97971.69
2022-08-17T16:42:00.236Z,97978.06
2022-08-17T16:47:23.247Z,97992.28
2022-08-17T16:52:48.480Z,97995.56
2022-08-17T16:58:10.378Z,97981.53
2022-08-17T17:03:32.583Z,97970.59
2022-08-17T17:09:00.358Z,97961.94
2022-08-17T17:14:48.618Z,97973.28
2022-08-17T17:20:15.757Z,97986.38
2022-08-17T17:25:44.514Z,97981.81
2022-08-17T17:31:15.858Z,97990.84
2022-08-17T17:36:41.878Z,97985.50
2022-08-17T17:42:08.372Z,97980.28
2022-08-17T17:47:30.600Z,97961.09
2022-08-17T17:53:04.252Z,97964.78
2022-08-17T17:58:52.372Z,97967.88
2022-08-17T18:04:32.684Z,97973.16
2022-08-17T18:10:30.506Z,97966.13
2022-08-17T18:15:54.394Z,97967.53
2022-08-17T18:21:34.361Z,97971.25
2022-08-17T18:27:01.535Z,97973.28
2022-08-17T18:32:31.954Z,97977.78
2022-08-17T18:38:20.332Z,97986.19
2022-08-17T18:43:52.881Z,97997.38
2022-08-17T18:49:28.045Z,98003.00
2022-08-17T18:55:14.076Z,98005.38
2022-08-17T19:00:38.207Z,98007.78
2022-08-17T19:06:28.864Z,98025.78
2022-08-17T19:11:50.949Z,98035.00
2022-08-17T19:17:22.371Z,98050.31
2022-08-17T19:23:00.097Z,98036.72
2022-08-17T19:28:44.188Z,98043.50
2022-08-17T19:34:15.129Z,98035.88
2022-08-17T19:40:01.970Z,98038.72
2022-08-17T19:46:03.859Z,98029.66
2022-08-17T19:51:44.640Z,98015.66
2022-08-17T19:57:18.481Z,98015.94
2022-08-17T20:02:57.909Z,98014.63
2022-08-17T20:08:33.837Z,98012.34
2022-08-17T20:14:13.881Z,98015.19
2022-08-17T20:19:51.935Z,98034.19
2022-08-17T20:25:30.742Z,98043.31
2022-08-17T20:30:52.761Z,98034.84
2022-08-17T20:36:19.460Z,98036.13
2022-08-17T20:42:27.823Z,98039.44
2022-08-17T20:53:46.933Z,98054.25
2022-08-17T20:59:31.208Z,98068.75
2022-08-17T21:04:54.429Z,98079.41
2022-08-17T21:10:25.254Z,98075.41
2022-08-17T21:15:56.690Z,98083.56
2022-08-17T21:21:44.793Z,98073.25
2022-08-17T21:27:20.930Z,98080.91
2022-08-17T21:32:43.965Z,98081.06
2022-08-17T21:38:13.611Z,98091.91
2022-08-17T21:43:37.425Z,98105.25
2022-08-17T21:49:09.175Z,98115.28
2022-08-17T21:54:40.751Z,98130.91
2022-08-17T22:00:15.349Z,98148.72
2022-08-17T22:05:39.788Z,98171.41
2022-08-17T22:11:02.214Z,98193.09
2022-08-17T22:16:29.217Z,98211.09
2022-08-17T22:22:06.523Z,98230.84
2022-08-17T22:27:54.333Z,98248.53
2022-08-17T22:33:44.623Z,98267.38
2022-08-17T22:39:09.388Z,98279.78
2022-08-17T22:44:37.685Z,98282.63
2022-08-17T22:50:03.020Z,98298.97
2022-08-17T22:55:45.067Z,98289.97
2022-08-17T23:01:29.445Z,98308.78
2022-08-17T23:06:54.015Z,98319.25
2022-08-17T23:12:22.002Z,98325.44
2022-08-17T23:17:45.347Z,98312.63
2022-08-17T23:23:08.993Z,98311.34
2022-08-17T23:28:30.732Z,98318.00
2022-08-17T23:33:52.464Z,98328.63
2022-08-17T23:39:14.179Z,98321.84
2022-08-17T23:44:46.133Z,98339.28
2022-08-17T23:50:08.553Z,98328.47
2022-08-17T23:55:34.480Z,98340.56
